Menen, Belgium
Current Conditions -  °F | °C
As of 10:00 PM on Thursday 27 Nov 2014 (Local Time) from LFQQ Reporting Station
Haze Haze  
Wind Chill: 50°   Ceiling: 500
Heat Index: 50°   Visibility: 2.5mi
Dew Point: 48°   Wind: 7mph
Humidity: 94%   Direction: 100°E
Pressure: 29.65"   Gusts: NA
Location:  50.8°N, 3.12°E
Report Text: LFQQ 272100Z 10006KT 4000 BR OVC005 10/09 Q1004 BECMG 2000 BR
Loading
Personal Weather Stations






























Interactive Weather Map New forecast layout! Learn more

10-Day Weather Forecast

Advertisements
Track Severe Weather on mobile